createdAt,value
2022-09-07T00:02:08.796Z,7.40
2022-09-07T00:04:39.314Z,6.20
2022-09-07T00:07:10.117Z,7.10
2022-09-07T00:09:40.895Z,7.30
2022-09-07T00:12:11.248Z,7.00
2022-09-07T00:14:41.872Z,14.60
2022-09-07T00:17:12.399Z,7.50
2022-09-07T00:19:43.036Z,7.10
2022-09-07T00:22:13.345Z,8.90
2022-09-07T00:24:43.885Z,6.30
2022-09-07T00:27:14.636Z,7.40
2022-09-07T00:29:45.861Z,6.10
2022-09-07T00:32:16.150Z,5.90
2022-09-07T00:34:46.869Z,8.10
2022-09-07T00:37:17.456Z,8.50
2022-09-07T00:39:49.503Z,6.90
2022-09-07T00:42:22.536Z,8.00
2022-09-07T00:45:16.515Z,6.40
2022-09-07T00:47:53.984Z,7.90
2022-09-07T00:50:31.201Z,10.30
2022-09-07T00:53:06.575Z,8.10
2022-09-07T00:55:39.088Z,8.40
2022-09-07T00:58:10.733Z,6.80
2022-09-07T01:00:43.052Z,6.50
2022-09-07T01:03:15.475Z,7.40
2022-09-07T01:05:49.753Z,7.70
2022-09-07T01:08:20.669Z,8.10
2022-09-07T01:10:51.479Z,6.80
2022-09-07T01:13:22.001Z,7.50
2022-09-07T01:16:01.418Z,7.60
2022-09-07T01:18:39.062Z,7.60
2022-09-07T01:24:16.668Z,7.20
2022-09-07T01:27:09.730Z,7.30
2022-09-07T01:29:50.101Z,9.30
2022-09-07T01:32:29.952Z,9.20
2022-09-07T01:35:04.247Z,7.00
2022-09-07T01:37:42.213Z,8.00
2022-09-07T01:40:18.712Z,9.40
2022-09-07T01:42:55.749Z,8.70
2022-09-07T01:45:31.538Z,7.60
2022-09-07T01:48:06.773Z,9.00
2022-09-07T01:50:45.549Z,7.00
2022-09-07T01:53:20.957Z,8.20
2022-09-07T01:55:57.724Z,6.10
2022-09-07T01:58:34.388Z,4.90
2022-09-07T02:01:09.004Z,6.40
2022-09-07T02:03:45.606Z,7.60
2022-09-07T02:06:19.818Z,7.50
2022-09-07T02:08:56.586Z,6.20
2022-09-07T02:11:33.652Z,6.90
2022-09-07T02:14:11.083Z,7.00
2022-09-07T02:16:49.483Z,7.10
2022-09-07T02:19:22.589Z,7.20
2022-09-07T02:21:59.231Z,7.30
2022-09-07T02:24:33.893Z,8.30
2022-09-07T02:27:08.865Z,8.90
2022-09-07T02:29:39.601Z,7.30
2022-09-07T02:32:10.142Z,8.40
2022-09-07T02:34:40.519Z,7.60
2022-09-07T02:37:13.937Z,7.40
2022-09-07T02:39:44.229Z,7.30
2022-09-07T02:42:14.588Z,8.70
2022-09-07T02:44:46.650Z,7.40
2022-09-07T02:47:31.668Z,6.80
2022-09-07T02:50:19.291Z,6.80
2022-09-07T02:53:05.281Z,7.90
2022-09-07T02:55:47.596Z,9.00
2022-09-07T02:58:34.518Z,5.90
2022-09-07T03:01:10.778Z,9.30
2022-09-07T03:03:48.370Z,8.90
2022-09-07T03:06:29.142Z,12.10
2022-09-07T03:09:02.995Z,11.10
2022-09-07T03:11:36.560Z,9.80
2022-09-07T03:14:21.771Z,8.50
2022-09-07T03:16:54.491Z,7.90
2022-09-07T03:19:24.873Z,9.20
2022-09-07T03:21:55.208Z,11.00
2022-09-07T03:24:25.558Z,10.00
2022-09-07T03:26:55.811Z,8.00
2022-09-07T03:29:26.056Z,9.10
2022-09-07T03:31:56.331Z,10.90
2022-09-07T03:34:26.579Z,8.60
2022-09-07T03:36:56.844Z,9.50
2022-09-07T03:39:28.182Z,9.30
2022-09-07T03:41:58.470Z,7.50
2022-09-07T03:44:28.762Z,7.80
2022-09-07T03:46:59.000Z,9.30
2022-09-07T03:49:29.260Z,9.20
2022-09-07T03:51:59.582Z,9.80
2022-09-07T03:54:29.860Z,11.10
2022-09-07T03:57:00.169Z,8.20
2022-09-07T03:59:30.724Z,10.30
2022-09-07T04:02:01.345Z,8.20
2022-09-07T04:04:32.438Z,8.80
2022-09-07T04:07:03.791Z,7.40
2022-09-07T04:09:34.170Z,8.70
2022-09-07T04:12:04.881Z,7.00
2022-09-07T04:14:35.118Z,9.30
2022-09-07T04:17:05.414Z,11.50
2022-09-07T04:19:35.734Z,21.00
2022-09-07T04:22:06.096Z,13.80
2022-09-07T04:24:36.320Z,11.90
2022-09-07T04:27:06.663Z,11.30
2022-09-07T04:29:37.038Z,9.60
2022-09-07T04:32:07.415Z,24.50
2022-09-07T04:34:37.922Z,13.20
2022-09-07T04:37:08.262Z,12.10
2022-09-07T04:39:38.896Z,11.90
2022-09-07T04:42:09.447Z,10.10
2022-09-07T04:44:39.843Z,11.40
2022-09-07T04:47:10.324Z,9.40
2022-09-07T04:49:41.220Z,9.90
2022-09-07T04:52:12.052Z,8.90
2022-09-07T04:54:42.837Z,12.00
2022-09-07T04:57:13.229Z,9.70
2022-09-07T04:59:43.455Z,10.60
2022-09-07T05:02:14.047Z,12.00
2022-09-07T05:04:44.538Z,11.10
2022-09-07T05:07:15.549Z,13.00
2022-09-07T05:09:46.424Z,10.80
2022-09-07T05:12:16.657Z,11.70
2022-09-07T05:14:47.303Z,14.90
2022-09-07T05:17:18.195Z,13.30
2022-09-07T05:19:49.047Z,17.70
2022-09-07T05:22:19.396Z,15.10
2022-09-07T05:24:51.819Z,14.70
2022-09-07T05:27:22.362Z,12.60
2022-09-07T05:32:30.041Z,16.60
2022-09-07T05:35:00.306Z,15.70
2022-09-07T05:37:30.905Z,13.80
2022-09-07T05:40:01.081Z,15.50
2022-09-07T05:42:31.789Z,12.30
2022-09-07T05:45:02.386Z,14.60
2022-09-07T05:47:32.954Z,14.50
2022-09-07T05:50:03.472Z,13.30
2022-09-07T05:52:33.743Z,13.10
2022-09-07T05:55:28.281Z,14.80
2022-09-07T05:57:54.545Z,13.50
2022-09-07T06:00:25.296Z,13.70
2022-09-07T06:02:55.671Z,12.50
2022-09-07T06:05:26.013Z,12.20
2022-09-07T06:07:56.294Z,15.40
2022-09-07T06:13:12.791Z,17.50
2022-09-07T06:15:43.062Z,16.70
2022-09-07T06:18:13.397Z,18.20
2022-09-07T06:20:43.650Z,17.50
2022-09-07T06:23:14.232Z,15.40
2022-09-07T06:25:51.788Z,18.70
2022-09-07T06:28:28.089Z,17.20
2022-09-07T06:31:02.974Z,18.70
2022-09-07T06:33:34.159Z,19.30
2022-09-07T06:36:07.511Z,18.10
2022-09-07T06:38:39.883Z,20.60
2022-09-07T06:44:03.584Z,17.70
2022-09-07T06:49:24.645Z,23.30
2022-09-07T06:51:55.236Z,16.10
2022-09-07T06:57:15.835Z,21.30
2022-09-07T06:59:46.111Z,17.30
2022-09-07T07:02:16.353Z,20.00
2022-09-07T07:04:47.817Z,15.60
2022-09-07T07:07:18.334Z,18.60
2022-09-07T07:09:50.932Z,15.70
2022-09-07T07:14:50.332Z,16.20
2022-09-07T07:17:20.693Z,17.40
2022-09-07T07:19:50.959Z,16.60
2022-09-07T07:22:45.560Z,15.70
2022-09-07T07:25:12.054Z,13.90
2022-09-07T07:27:42.312Z,16.70
2022-09-07T07:30:13.898Z,20.60
2022-09-07T07:32:45.127Z,15.30
2022-09-07T07:35:16.049Z,17.20
2022-09-07T07:37:48.120Z,20.50
2022-09-07T07:40:21.266Z,16.10
2022-09-07T07:42:55.658Z,19.60
2022-09-07T07:48:16.296Z,16.30
2022-09-07T07:50:46.501Z,15.10
2022-09-07T07:56:08.563Z,14.80
2022-09-07T07:58:39.901Z,15.10
2022-09-07T08:01:14.166Z,14.40
2022-09-07T08:03:46.838Z,15.30
2022-09-07T08:06:19.298Z,15.90
2022-09-07T08:08:50.160Z,24.60
2022-09-07T08:11:21.990Z,15.10
2022-09-07T08:13:55.091Z,13.70
2022-09-07T08:16:25.721Z,12.20
2022-09-07T08:18:56.363Z,12.10
2022-09-07T08:21:26.885Z,10.70
2022-09-07T08:24:00.076Z,10.70
2022-09-07T08:26:30.813Z,11.80
2022-09-07T08:29:01.405Z,12.20
2022-09-07T08:31:31.699Z,12.90
2022-09-07T08:34:02.887Z,12.20
2022-09-07T08:36:33.179Z,13.70
2022-09-07T08:39:03.776Z,10.90
2022-09-07T08:41:49.761Z,15.00
2022-09-07T08:44:24.707Z,12.00
2022-09-07T08:47:00.592Z,12.70
2022-09-07T08:49:37.330Z,12.40
2022-09-07T08:52:13.972Z,13.20
2022-09-07T08:54:48.101Z,12.00
2022-09-07T08:57:28.050Z,12.50
2022-09-07T09:00:07.620Z,10.70
2022-09-07T09:02:43.536Z,12.70
2022-09-07T09:05:38.101Z,11.70
2022-09-07T09:08:20.133Z,10.30
2022-09-07T09:10:59.798Z,10.80
2022-09-07T09:13:42.493Z,11.30
2022-09-07T09:16:21.636Z,11.10
2022-09-07T09:19:08.580Z,10.90
2022-09-07T09:21:40.977Z,10.60
2022-09-07T09:24:17.695Z,10.30
2022-09-07T09:29:26.753Z,12.60
2022-09-07T09:31:57.276Z,12.30
2022-09-07T09:34:31.235Z,10.00
2022-09-07T09:37:03.671Z,10.10
2022-09-07T09:39:35.640Z,8.90
2022-09-07T09:42:23.394Z,9.40
2022-09-07T09:44:54.617Z,9.40
2022-09-07T09:47:32.588Z,8.60
2022-09-07T09:50:07.546Z,8.00
2022-09-07T09:52:49.375Z,8.50
2022-09-07T09:55:34.864Z,11.10
2022-09-07T10:06:27.598Z,8.80
2022-09-07T10:09:01.808Z,7.80
2022-09-07T10:14:45.903Z,7.40
2022-09-07T10:17:25.828Z,12.00
2022-09-07T10:20:02.679Z,12.00
2022-09-07T10:22:36.825Z,13.30
2022-09-07T10:25:31.344Z,10.20
2022-09-07T10:28:15.433Z,9.70
2022-09-07T10:30:56.432Z,8.80
2022-09-07T10:33:36.973Z,8.80
2022-09-07T10:36:15.251Z,9.20
2022-09-07T10:38:55.784Z,7.90
2022-09-07T10:41:39.004Z,10.80
2022-09-07T10:44:18.970Z,7.80
2022-09-07T10:46:58.509Z,8.50
2022-09-07T10:49:37.494Z,8.00
2022-09-07T10:52:20.144Z,8.70
2022-09-07T10:54:55.955Z,9.10
2022-09-07T10:57:41.578Z,8.10
2022-09-07T11:00:16.645Z,7.30
2022-09-07T11:06:07.457Z,8.20
2022-09-07T11:14:42.339Z,7.10
2022-09-07T11:17:19.343Z,6.80
2022-09-07T11:19:56.763Z,9.40
2022-09-07T11:22:36.207Z,7.80
2022-09-07T11:25:32.065Z,6.70
2022-09-07T11:28:09.386Z,6.60
2022-09-07T11:30:44.583Z,6.00
2022-09-07T11:33:21.019Z,7.10
2022-09-07T11:35:55.454Z,6.20
2022-09-07T11:38:32.203Z,6.30
2022-09-07T11:41:16.566Z,6.70
2022-09-07T11:43:57.742Z,6.40
2022-09-07T11:46:35.176Z,7.00
2022-09-07T11:49:08.582Z,6.20
2022-09-07T11:51:44.201Z,6.20
2022-09-07T11:54:35.153Z,5.90
2022-09-07T11:57:19.473Z,5.00
2022-09-07T12:00:02.436Z,4.90
2022-09-07T12:02:59.869Z,5.10
2022-09-07T12:05:51.736Z,7.30
2022-09-07T12:08:36.541Z,10.40
2022-09-07T12:11:27.880Z,6.10
2022-09-07T12:14:17.958Z,5.50
2022-09-07T12:17:18.911Z,6.00
2022-09-07T12:20:04.362Z,4.40
2022-09-07T12:22:35.216Z,4.70
2022-09-07T12:25:11.712Z,6.10
2022-09-07T12:27:42.714Z,5.20
2022-09-07T12:30:51.806Z,4.20
2022-09-07T12:33:28.733Z,6.40
2022-09-07T12:36:00.961Z,4.10
2022-09-07T12:39:19.459Z,4.30
2022-09-07T12:42:31.790Z,6.10
2022-09-07T12:44:42.937Z,5.90
2022-09-07T12:47:30.515Z,4.60
2022-09-07T12:50:19.590Z,3.60
2022-09-07T12:53:15.028Z,3.40
2022-09-07T12:56:16.575Z,4.90
2022-09-07T12:58:58.090Z,3.80
2022-09-07T13:01:37.686Z,3.40
2022-09-07T13:04:48.749Z,3.60
2022-09-07T13:07:47.207Z,4.00
2022-09-07T13:10:36.022Z,3.10
2022-09-07T13:13:08.781Z,3.60
2022-09-07T13:15:45.351Z,3.50
2022-09-07T13:18:43.985Z,3.60
2022-09-07T13:21:39.977Z,2.90
2022-09-07T13:24:46.264Z,3.50
2022-09-07T13:27:44.581Z,5.80
2022-09-07T13:30:38.439Z,2.70
2022-09-07T13:33:52.400Z,3.20
2022-09-07T13:36:32.829Z,4.80
2022-09-07T13:39:07.557Z,3.50
2022-09-07T13:41:43.862Z,3.80
2022-09-07T13:44:26.122Z,2.60
2022-09-07T13:47:21.091Z,2.30
2022-09-07T13:50:02.843Z,2.90
2022-09-07T13:52:45.452Z,2.60
2022-09-07T13:55:33.887Z,2.50
2022-09-07T13:58:14.564Z,2.30
2022-09-07T14:01:00.614Z,3.60
2022-09-07T14:03:38.575Z,3.00
2022-09-07T14:06:27.206Z,4.10
2022-09-07T14:08:59.792Z,4.30
2022-09-07T14:11:38.928Z,3.30
2022-09-07T14:14:16.774Z,3.40
2022-09-07T14:16:50.814Z,3.10
2022-09-07T14:19:24.537Z,3.50
2022-09-07T14:22:03.321Z,2.80
2022-09-07T14:24:36.185Z,5.20
2022-09-07T14:27:17.658Z,2.90
2022-09-07T14:29:48.358Z,3.40
2022-09-07T14:32:23.393Z,3.00
2022-09-07T14:34:54.329Z,3.50
2022-09-07T14:37:25.040Z,4.00
2022-09-07T14:39:56.293Z,3.10
2022-09-07T14:42:27.448Z,3.30
2022-09-07T14:45:31.083Z,3.30
2022-09-07T14:48:11.470Z,2.70
2022-09-07T14:50:57.089Z,2.60
2022-09-07T14:53:36.315Z,2.70
2022-09-07T14:56:12.525Z,3.10
2022-09-07T14:58:42.780Z,2.90
2022-09-07T15:01:38.143Z,2.90
2022-09-07T15:04:20.212Z,3.00
2022-09-07T15:07:06.583Z,3.30
2022-09-07T15:09:40.989Z,3.20
2022-09-07T15:12:30.099Z,4.10
2022-09-07T15:15:24.455Z,3.50
2022-09-07T15:20:40.991Z,6.50
2022-09-07T15:23:14.905Z,5.30
2022-09-07T15:25:54.020Z,4.10
2022-09-07T15:34:14.243Z,4.40
2022-09-07T15:36:48.755Z,2.60
2022-09-07T15:39:21.168Z,3.40
2022-09-07T15:41:52.349Z,3.60
2022-09-07T15:44:26.521Z,3.40
2022-09-07T15:49:51.592Z,3.40
2022-09-07T15:52:24.450Z,1.70
2022-09-07T15:54:56.696Z,1.80
2022-09-07T16:00:19.581Z,1.60
2022-09-07T16:03:07.398Z,1.80
2022-09-07T16:05:44.018Z,1.50
2022-09-07T16:11:18.500Z,2.70
2022-09-07T16:13:50.468Z,4.10
2022-09-07T16:16:21.364Z,2.60
2022-09-07T16:18:52.289Z,2.70
2022-09-07T16:21:26.331Z,3.40
2022-09-07T16:23:56.961Z,5.10
2022-09-07T16:26:28.963Z,4.50
2022-09-07T16:28:59.897Z,4.80
2022-09-07T16:31:31.207Z,4.00
2022-09-07T16:34:04.237Z,4.00
2022-09-07T16:36:34.516Z,5.60
2022-09-07T16:39:05.135Z,4.70
2022-09-07T16:41:35.826Z,7.10
2022-09-07T16:44:07.678Z,9.60
2022-09-07T16:46:39.381Z,6.00
2022-09-07T16:49:10.568Z,5.20
2022-09-07T16:51:40.926Z,6.70
2022-09-07T16:54:13.794Z,8.60
2022-09-07T16:56:43.934Z,5.90
2022-09-07T16:59:16.938Z,4.50
2022-09-07T17:01:47.261Z,4.90
2022-09-07T17:04:18.609Z,5.10
2022-09-07T17:06:49.041Z,4.10
2022-09-07T17:09:20.552Z,4.60
2022-09-07T17:11:50.777Z,5.50
2022-09-07T17:14:20.970Z,6.00
2022-09-07T17:16:51.291Z,8.40
2022-09-07T17:19:30.055Z,7.90
2022-09-07T17:22:00.836Z,5.40
2022-09-07T17:24:32.190Z,5.00
2022-09-07T17:27:03.684Z,6.40
2022-09-07T17:29:37.098Z,5.50
2022-09-07T17:32:24.445Z,6.20
2022-09-07T17:34:55.452Z,6.60
2022-09-07T17:37:26.313Z,7.50
2022-09-07T17:39:57.951Z,9.80
2022-09-07T17:43:38.867Z,10.50
2022-09-07T17:45:19.841Z,13.90
2022-09-07T17:47:50.416Z,12.70
2022-09-07T17:50:20.736Z,16.10
2022-09-07T17:52:53.904Z,12.80
2022-09-07T17:55:24.486Z,8.50
2022-09-07T17:57:54.745Z,7.00
2022-09-07T18:00:25.035Z,7.20
2022-09-07T18:02:55.261Z,7.80
2022-09-07T18:05:25.978Z,7.80
2022-09-07T18:07:56.490Z,7.30
2022-09-07T18:10:27.020Z,8.50
2022-09-07T18:12:57.868Z,7.30
2022-09-07T18:15:28.179Z,9.40
2022-09-07T18:17:59.121Z,10.00
2022-09-07T18:20:32.475Z,8.70
2022-09-07T18:23:53.769Z,9.30
2022-09-07T18:29:46.501Z,8.90
2022-09-07T18:32:17.662Z,10.40
2022-09-07T18:34:50.623Z,10.70
2022-09-07T18:37:21.249Z,9.90
2022-09-07T18:39:51.474Z,8.00
2022-09-07T18:42:22.346Z,10.20
2022-09-07T18:47:47.508Z,7.40
2022-09-07T18:50:18.037Z,8.60
2022-09-07T18:52:52.521Z,8.60
2022-09-07T18:55:24.395Z,7.60
2022-09-07T18:57:55.684Z,11.80
2022-09-07T19:00:26.074Z,8.40
2022-09-07T19:02:56.659Z,7.10
2022-09-07T19:08:17.350Z,9.10
2022-09-07T19:10:47.594Z,7.20
2022-09-07T19:13:18.554Z,5.70
2022-09-07T19:15:48.940Z,5.60
2022-09-07T19:18:19.209Z,6.20
2022-09-07T19:20:49.402Z,5.50
2022-09-07T19:23:20.711Z,5.30
2022-09-07T19:25:51.200Z,4.70
2022-09-07T19:28:21.728Z,4.70
2022-09-07T19:30:52.935Z,4.20
2022-09-07T19:33:23.696Z,7.00
2022-09-07T19:35:53.841Z,6.30
2022-09-07T19:38:24.386Z,5.20
2022-09-07T19:41:02.032Z,5.20
2022-09-07T19:46:03.953Z,5.40
2022-09-07T19:48:34.445Z,4.30
2022-09-07T19:51:06.857Z,5.40
2022-09-07T19:53:38.765Z,4.80
2022-09-07T19:56:11.447Z,5.30
2022-09-07T19:58:43.313Z,5.00
2022-09-07T20:01:16.071Z,4.90
2022-09-07T20:03:50.208Z,4.90
2022-09-07T20:06:22.700Z,4.70
2022-09-07T20:08:53.413Z,5.10
2022-09-07T20:11:23.937Z,4.30
2022-09-07T20:13:54.227Z,6.40
2022-09-07T20:16:25.198Z,3.80
2022-09-07T20:18:55.397Z,4.50
2022-09-07T20:21:27.301Z,4.80
2022-09-07T20:23:57.624Z,5.30
2022-09-07T20:26:30.262Z,5.70
2022-09-07T20:31:50.768Z,4.20
2022-09-07T20:34:21.253Z,4.80
2022-09-07T20:36:53.133Z,4.80
2022-09-07T20:39:24.155Z,6.00
2022-09-07T20:41:54.425Z,4.30
2022-09-07T20:44:24.762Z,4.50
2022-09-07T20:46:54.983Z,2.50
2022-09-07T20:49:25.320Z,6.90
2022-09-07T20:51:55.509Z,5.90
2022-09-07T20:54:25.750Z,6.60
2022-09-07T20:56:56.243Z,4.60
2022-09-07T20:59:26.415Z,5.80
2022-09-07T21:01:56.630Z,8.20
2022-09-07T21:04:27.504Z,7.10
2022-09-07T21:06:57.639Z,6.00
2022-09-07T21:09:27.888Z,5.40
2022-09-07T21:11:58.002Z,5.50
2022-09-07T21:14:28.166Z,6.80
2022-09-07T21:16:58.825Z,7.30
2022-09-07T21:19:28.947Z,6.80
2022-09-07T21:21:59.102Z,9.00
2022-09-07T21:24:29.467Z,7.10
2022-09-07T21:26:59.649Z,7.10
2022-09-07T21:29:29.951Z,5.30
2022-09-07T21:32:00.233Z,4.40
2022-09-07T21:34:30.371Z,7.70
2022-09-07T21:37:00.560Z,5.00
2022-09-07T21:39:31.221Z,6.80
2022-09-07T21:42:01.752Z,6.10
2022-09-07T21:44:31.867Z,9.10
2022-09-07T21:47:02.089Z,12.30
2022-09-07T21:49:32.221Z,6.40
2022-09-07T21:52:02.871Z,4.90
2022-09-07T21:54:32.993Z,9.40
2022-09-07T21:57:03.093Z,7.30
2022-09-07T21:59:33.191Z,7.80
2022-09-07T22:02:03.350Z,7.20
2022-09-07T22:04:33.502Z,7.20
2022-09-07T22:07:03.682Z,9.20
2022-09-07T22:09:33.876Z,9.40
2022-09-07T22:12:04.589Z,9.10
2022-09-07T22:14:34.870Z,10.20
2022-09-07T22:17:05.061Z,8.30
2022-09-07T22:19:35.913Z,8.60
2022-09-07T22:22:06.504Z,8.90
2022-09-07T22:24:36.622Z,8.20
2022-09-07T22:27:07.427Z,15.50
2022-09-07T22:29:37.874Z,10.40
2022-09-07T22:32:08.441Z,9.60
2022-09-07T22:34:38.637Z,12.00
2022-09-07T22:37:09.863Z,9.40
2022-09-07T22:39:40.193Z,12.30
2022-09-07T22:42:10.849Z,14.60
2022-09-07T22:44:41.238Z,12.30
2022-09-07T22:47:11.990Z,14.00
2022-09-07T22:49:42.101Z,11.30
2022-09-07T22:52:12.235Z,13.30
2022-09-07T22:54:42.659Z,11.10
2022-09-07T22:57:12.798Z,10.70
2022-09-07T22:59:43.585Z,10.10
2022-09-07T23:02:13.721Z,9.40
2022-09-07T23:04:43.956Z,9.50
2022-09-07T23:07:14.221Z,9.50
2022-09-07T23:09:44.313Z,7.90
2022-09-07T23:12:14.473Z,9.10
2022-09-07T23:14:44.549Z,8.70
2022-09-07T23:17:14.977Z,10.20
2022-09-07T23:19:45.361Z,13.90
2022-09-07T23:22:15.801Z,10.30
2022-09-07T23:24:45.899Z,12.50
2022-09-07T23:27:16.018Z,7.90
2022-09-07T23:29:46.461Z,8.70
2022-09-07T23:32:16.692Z,7.90
2022-09-07T23:34:47.118Z,9.50
2022-09-07T23:37:17.556Z,8.20
2022-09-07T23:39:47.660Z,9.00
2022-09-07T23:42:18.077Z,9.30
2022-09-07T23:44:48.926Z,9.00
2022-09-07T23:47:19.065Z,11.10
2022-09-07T23:49:49.250Z,8.40
2022-09-07T23:52:19.378Z,7.90
2022-09-07T23:54:50.635Z,8.00
2022-09-07T23:57:21.030Z,8.40
2022-09-07T23:59:51.183Z,7.90
